METAR Data
IDs: Format: Raw Decoded Include TAF

Data at: 1827 UTC 26 Sep 2021

METAR for:KUZA (Rock Hill/Bryant Fld, SC, US)
Text:KUZA 261754Z AUTO 25005KT 10SM CLR 25/12 A3013 RMK AO2 SLP194 T02500122 10261 20111 58012
Temperature: 25.0°C ( 77°F)
Dewpoint: 12.2°C ( 54°F) [RH = 45%]
Pressure (altimeter):30.13 inches Hg (1020.4 mb) [Sea level pressure: 1019.4 mb]
Winds:from the WSW (250 degrees) at 6 MPH (5 knots; 2.6 m/s)
Visibility:10 or more sm (16+ km)
Ceiling:at least 12,000 feet AGL
Clouds:sky clear below 12,000 feet AGL
QC Flag:automated observation with no human augmentation

TAF for:KUZA (Rock Hill/Bryant Fld, SC, US)
Text:No data found